createdAt,value
2022-11-02T00:00:32.039Z,101554.19
2022-11-02T00:02:59.987Z,101555.97
2022-11-02T00:05:28.093Z,101560.72
2022-11-02T00:07:56.835Z,101564.50
2022-11-02T00:10:25.732Z,101571.75
2022-11-02T00:12:54.076Z,101565.63
2022-11-02T00:15:25.487Z,101565.63
2022-11-02T00:17:56.892Z,101562.88
2022-11-02T00:20:26.220Z,101568.84
2022-11-02T00:22:57.127Z,101573.34
2022-11-02T00:25:26.500Z,101580.78
2022-11-02T00:27:54.308Z,101579.28
2022-11-02T00:30:23.449Z,101577.41
2022-11-02T00:32:51.828Z,101589.00
2022-11-02T00:35:19.586Z,101584.50
2022-11-02T00:37:47.408Z,101594.13
2022-11-02T00:40:15.147Z,101598.41
2022-11-02T00:42:42.902Z,101596.06
2022-11-02T00:45:11.144Z,101593.50
2022-11-02T00:47:40.362Z,101603.53
2022-11-02T00:50:09.116Z,101598.16
2022-11-02T00:52:36.863Z,101589.22
2022-11-02T00:55:04.887Z,101599.13
2022-11-02T00:57:32.643Z,101596.25
2022-11-02T01:00:00.360Z,101599.72
2022-11-02T01:02:29.368Z,101598.91
2022-11-02T01:04:58.576Z,101601.09
2022-11-02T01:07:26.347Z,101601.91
2022-11-02T01:09:54.087Z,101602.03
2022-11-02T01:12:22.145Z,101603.94
2022-11-02T01:14:50.753Z,101597.78
2022-11-02T01:17:19.198Z,101606.06
2022-11-02T01:19:49.444Z,101607.22
2022-11-02T01:22:19.018Z,101605.81
2022-11-02T01:24:46.724Z,101611.41
2022-11-02T01:27:14.399Z,101613.28
2022-11-02T01:29:42.128Z,101621.03
2022-11-02T01:32:09.903Z,101614.88
2022-11-02T01:34:37.580Z,101618.44
2022-11-02T01:37:05.392Z,101622.78
2022-11-02T01:39:34.502Z,101622.28
2022-11-02T01:42:02.185Z,101623.75
2022-11-02T01:44:32.095Z,101625.50
2022-11-02T01:47:04.190Z,101627.44
2022-11-02T01:49:34.646Z,101626.72
2022-11-02T01:52:09.519Z,101624.16
2022-11-02T01:54:43.577Z,101626.03
2022-11-02T01:57:14.555Z,101625.91
2022-11-02T01:59:46.434Z,101615.69
2022-11-02T02:02:18.781Z,101629.13
2022-11-02T02:04:51.856Z,101619.28
2022-11-02T02:07:20.818Z,101636.25
2022-11-02T02:09:51.393Z,101618.38
2022-11-02T02:12:21.075Z,101622.63
2022-11-02T02:14:48.974Z,101627.78
2022-11-02T02:17:34.168Z,101625.81
2022-11-02T02:20:06.339Z,101637.38
2022-11-02T02:23:04.370Z,101622.34
2022-11-02T02:26:09.531Z,101629.25
2022-11-02T02:28:43.733Z,101621.09
2022-11-02T02:31:17.116Z,101630.28
2022-11-02T02:33:47.875Z,101627.81
2022-11-02T02:36:25.532Z,101627.94
2022-11-02T02:39:02.019Z,101623.56
2022-11-02T02:41:39.155Z,101629.81
2022-11-02T02:44:11.818Z,101627.41
2022-11-02T02:46:46.606Z,101622.09
2022-11-02T02:49:22.657Z,101628.88
2022-11-02T02:51:51.838Z,101637.19
2022-11-02T02:54:23.863Z,101627.50
2022-11-02T02:56:55.863Z,101625.88
2022-11-02T02:59:29.304Z,101621.97
2022-11-02T03:01:57.733Z,101628.56
2022-11-02T03:04:26.109Z,101627.94
2022-11-02T03:06:58.303Z,101628.66
2022-11-02T03:09:33.706Z,101628.50
2022-11-02T03:12:14.080Z,101634.28
2022-11-02T03:14:56.701Z,101630.97
2022-11-02T03:17:33.901Z,101628.69
2022-11-02T03:20:11.647Z,101635.03
2022-11-02T03:22:49.899Z,101637.53
2022-11-02T03:25:22.460Z,101633.56
2022-11-02T03:27:56.187Z,101633.56
2022-11-02T03:30:28.830Z,101642.00
2022-11-02T03:33:03.592Z,101642.13
2022-11-02T03:35:36.708Z,101636.84
2022-11-02T03:38:09.071Z,101638.94
2022-11-02T03:40:43.103Z,101635.97
2022-11-02T03:43:11.952Z,101642.56
2022-11-02T03:45:44.872Z,101647.56
2022-11-02T03:48:15.466Z,101655.00
2022-11-02T03:50:47.737Z,101654.31
2022-11-02T03:53:22.624Z,101660.09
2022-11-02T03:55:56.882Z,101660.91
2022-11-02T03:58:24.677Z,101663.94
2022-11-02T04:00:57.050Z,101656.66
2022-11-02T04:03:25.879Z,101666.38
2022-11-02T04:05:53.629Z,101664.38
2022-11-02T04:08:30.638Z,101661.50
2022-11-02T04:11:15.830Z,101660.53
2022-11-02T04:14:00.390Z,101664.88
2022-11-02T04:16:29.538Z,101662.91
2022-11-02T04:19:14.698Z,101667.09
2022-11-02T04:22:02.998Z,101660.53
2022-11-02T04:24:48.057Z,101664.13
2022-11-02T04:27:20.557Z,101667.06
2022-11-02T04:29:48.753Z,101672.31
2022-11-02T04:32:38.771Z,101673.81
2022-11-02T04:35:06.880Z,101670.69
2022-11-02T04:37:57.483Z,101669.69
2022-11-02T04:40:25.280Z,101672.63
2022-11-02T04:42:53.081Z,101680.66
2022-11-02T04:45:20.912Z,101688.25
2022-11-02T04:47:50.020Z,101688.38
2022-11-02T04:50:17.889Z,101692.72
2022-11-02T04:52:45.599Z,101686.44
2022-11-02T04:55:13.287Z,101690.94
2022-11-02T04:57:45.818Z,101687.34
2022-11-02T05:00:15.500Z,101688.81
2022-11-02T05:02:43.503Z,101701.66
2022-11-02T05:05:12.760Z,101703.28
2022-11-02T05:07:40.538Z,101704.00
2022-11-02T05:10:09.276Z,101706.06
2022-11-02T05:12:37.220Z,101700.63
2022-11-02T05:15:05.859Z,101698.88
2022-11-02T05:17:33.622Z,101700.25
2022-11-02T05:20:01.486Z,101709.25
2022-11-02T05:22:32.048Z,101704.69
2022-11-02T05:24:59.808Z,101702.97
2022-11-02T05:27:27.550Z,101695.50
2022-11-02T05:29:55.243Z,101694.59
2022-11-02T05:32:22.916Z,101696.44
2022-11-02T05:34:50.575Z,101693.69
2022-11-02T05:37:18.343Z,101693.88
2022-11-02T05:39:49.511Z,101688.66
2022-11-02T05:42:18.351Z,101693.31
2022-11-02T05:44:46.073Z,101694.94
2022-11-02T05:47:13.768Z,101692.28
2022-11-02T05:49:41.479Z,101687.34
2022-11-02T05:52:09.229Z,101691.88
2022-11-02T05:54:36.947Z,101693.59
2022-11-02T05:57:06.132Z,101682.88
2022-11-02T05:59:33.883Z,101692.78
2022-11-02T06:02:01.668Z,101690.88
2022-11-02T06:04:29.440Z,101697.25
2022-11-02T06:06:57.147Z,101690.31
2022-11-02T06:09:24.832Z,101688.66
2022-11-02T06:11:52.606Z,101686.88
2022-11-02T06:14:21.872Z,101693.59
2022-11-02T06:16:49.651Z,101696.88
2022-11-02T06:19:17.420Z,101690.56
2022-11-02T06:21:48.316Z,101695.13
2022-11-02T06:24:16.611Z,101698.16
2022-11-02T06:26:44.327Z,101691.50
2022-11-02T06:29:12.089Z,101705.75
2022-11-02T06:31:41.572Z,101696.72
2022-11-02T06:34:09.263Z,101705.50
2022-11-02T06:36:37.235Z,101697.97
2022-11-02T06:39:05.121Z,101700.13
2022-11-02T06:41:32.830Z,101700.53
2022-11-02T06:44:00.689Z,101699.84
2022-11-02T06:46:28.413Z,101701.69
2022-11-02T06:48:58.827Z,101700.78
2022-11-02T06:51:26.619Z,101705.88
2022-11-02T06:53:54.285Z,101697.75
2022-11-02T06:56:22.216Z,101702.19
2022-11-02T06:58:49.904Z,101699.44
2022-11-02T07:01:18.114Z,101697.53
2022-11-02T07:03:45.933Z,101700.34
2022-11-02T07:06:15.063Z,101704.84
2022-11-02T07:08:43.368Z,101696.34
2022-11-02T07:11:15.279Z,101693.00
2022-11-02T07:13:43.428Z,101693.94
2022-11-02T07:16:11.288Z,101693.94
2022-11-02T07:18:39.044Z,101703.31
2022-11-02T07:21:07.241Z,101688.75
2022-11-02T07:23:36.365Z,101692.00
2022-11-02T07:26:05.427Z,101689.78
2022-11-02T07:28:33.289Z,101700.34
2022-11-02T07:31:01.027Z,101695.13
2022-11-02T07:33:28.674Z,101698.03
2022-11-02T07:35:56.461Z,101700.66
2022-11-02T07:38:24.226Z,101701.34
2022-11-02T07:40:53.282Z,101701.44
2022-11-02T07:43:20.992Z,101702.13
2022-11-02T07:45:48.729Z,101694.50
2022-11-02T07:48:16.396Z,101703.69
2022-11-02T07:50:44.109Z,101703.53
2022-11-02T07:53:11.852Z,101698.47
2022-11-02T07:55:39.667Z,101702.09
2022-11-02T07:58:13.572Z,101716.13
2022-11-02T08:00:42.169Z,101704.69
2022-11-02T08:03:12.436Z,101705.53
2022-11-02T08:05:41.890Z,101707.94
2022-11-02T08:08:12.213Z,101704.38
2022-11-02T08:10:40.728Z,101708.69
2022-11-02T08:13:11.148Z,101710.97
2022-11-02T08:15:39.528Z,101707.81
2022-11-02T08:18:10.313Z,101708.41
2022-11-02T08:20:38.105Z,101712.03
2022-11-02T08:23:07.447Z,101719.97
2022-11-02T08:25:35.605Z,101714.63
2022-11-02T08:28:04.386Z,101719.91
2022-11-02T08:30:34.408Z,101723.19
2022-11-02T08:33:07.295Z,101721.97
2022-11-02T08:35:37.520Z,101723.16
2022-11-02T08:38:06.017Z,101721.25
2022-11-02T08:40:34.789Z,101725.00
2022-11-02T08:43:03.908Z,101721.38
2022-11-02T08:46:00.561Z,101717.25
2022-11-02T08:48:22.089Z,101727.09
2022-11-02T08:50:50.193Z,101720.88
2022-11-02T08:53:17.977Z,101720.63
2022-11-02T08:55:45.654Z,101724.41
2022-11-02T08:58:13.404Z,101718.72
2022-11-02T09:00:42.487Z,101723.38
2022-11-02T09:03:12.859Z,101720.03
2022-11-02T09:05:43.399Z,101727.00
2022-11-02T09:08:13.526Z,101725.53
2022-11-02T09:10:41.813Z,101723.06
2022-11-02T09:13:12.844Z,101723.25
2022-11-02T09:15:42.737Z,101720.25
2022-11-02T09:18:11.184Z,101710.16
2022-11-02T09:20:39.114Z,101713.75
2022-11-02T09:23:06.877Z,101710.94
2022-11-02T09:25:34.560Z,101707.78
2022-11-02T09:28:02.329Z,101703.34
2022-11-02T09:30:30.137Z,101696.56
2022-11-02T09:33:00.574Z,101700.25
2022-11-02T09:35:29.812Z,101692.75
2022-11-02T09:37:58.021Z,101696.84
2022-11-02T09:40:27.821Z,101695.56
2022-11-02T09:43:05.652Z,101692.72
2022-11-02T09:45:37.204Z,101690.53
2022-11-02T09:48:17.677Z,101691.50
2022-11-02T09:50:54.278Z,101689.53
2022-11-02T09:53:32.506Z,101691.50
2022-11-02T09:56:02.290Z,101689.28
2022-11-02T09:58:36.327Z,101686.63
2022-11-02T10:01:17.617Z,101680.38
2022-11-02T10:04:06.179Z,101681.69
2022-11-02T10:06:38.295Z,101679.41
2022-11-02T10:09:13.358Z,101679.81
2022-11-02T10:11:50.955Z,101685.91
2022-11-02T10:14:25.386Z,101686.69
2022-11-02T10:16:58.914Z,101689.50
2022-11-02T10:19:30.555Z,101681.47
2022-11-02T10:21:59.571Z,101678.09
2022-11-02T10:24:33.241Z,101681.53
2022-11-02T10:27:02.750Z,101675.06
2022-11-02T10:29:46.431Z,101673.78
2022-11-02T10:32:15.958Z,101678.97
2022-11-02T10:34:58.589Z,101675.78
2022-11-02T10:37:45.354Z,101668.00
2022-11-02T10:40:22.678Z,101665.13
2022-11-02T10:43:05.941Z,101655.88
2022-11-02T10:45:49.261Z,101645.25
2022-11-02T10:48:29.444Z,101648.31
2022-11-02T10:51:08.471Z,101640.00
2022-11-02T10:53:41.568Z,101641.44
2022-11-02T10:56:16.611Z,101638.44
2022-11-02T10:58:51.537Z,101642.53
2022-11-02T11:01:19.503Z,101640.03
2022-11-02T11:03:59.125Z,101623.31
2022-11-02T11:06:31.874Z,101618.84
2022-11-02T11:09:01.971Z,101610.31
2022-11-02T11:11:32.596Z,101605.66
2022-11-02T11:16:54.448Z,101595.19
2022-11-02T11:19:42.362Z,101590.94
2022-11-02T11:22:29.455Z,101579.53
2022-11-02T11:25:27.123Z,101569.72
2022-11-02T11:27:56.995Z,101575.47
2022-11-02T11:30:58.359Z,101560.75
2022-11-02T11:33:17.614Z,101549.28
2022-11-02T11:35:49.991Z,101546.34
2022-11-02T11:38:22.095Z,101535.56
2022-11-02T11:40:54.348Z,101523.25
2022-11-02T11:43:25.190Z,101520.38
2022-11-02T11:46:03.979Z,101517.19
2022-11-02T11:48:39.014Z,101509.41
2022-11-02T11:51:26.529Z,101514.72
2022-11-02T11:54:22.216Z,101483.06
2022-11-02T11:56:51.709Z,101479.38
2022-11-02T11:59:28.849Z,101472.47
2022-11-02T12:02:01.332Z,101481.72
2022-11-02T12:04:35.018Z,101473.97
2022-11-02T12:07:19.862Z,101474.91
2022-11-02T12:09:58.627Z,101468.00
2022-11-02T12:12:39.659Z,101474.19
2022-11-02T12:15:22.079Z,101458.16
2022-11-02T12:18:02.411Z,101458.84
2022-11-02T12:20:49.804Z,101463.94
2022-11-02T12:23:34.765Z,101458.75
2022-11-02T12:26:18.810Z,101456.97
2022-11-02T12:28:57.885Z,101445.66
2022-11-02T12:31:38.883Z,101440.97
2022-11-02T12:34:22.402Z,101430.22
2022-11-02T12:37:32.819Z,101430.84
2022-11-02T12:39:58.511Z,101432.75
2022-11-02T12:42:30.752Z,101431.34
2022-11-02T12:45:22.825Z,101436.34
2022-11-02T12:47:57.544Z,101444.13
2022-11-02T12:50:50.320Z,101433.66
2022-11-02T12:53:35.239Z,101437.22
2022-11-02T12:56:06.406Z,101441.75
2022-11-02T12:58:38.652Z,101466.44
2022-11-02T13:01:13.873Z,101469.81
2022-11-02T13:03:50.245Z,101461.97
2022-11-02T13:06:22.919Z,101442.16
2022-11-02T13:08:54.676Z,101445.88
2022-11-02T13:11:28.715Z,101440.56
2022-11-02T13:14:00.263Z,101431.81
2022-11-02T13:16:39.576Z,101427.28
2022-11-02T13:19:13.861Z,101415.13
2022-11-02T13:21:46.824Z,101408.75
2022-11-02T13:24:19.720Z,101416.25
2022-11-02T13:26:57.125Z,101411.13
2022-11-02T13:29:36.252Z,101411.09
2022-11-02T13:32:11.308Z,101402.09
2022-11-02T13:34:42.199Z,101400.16
2022-11-02T13:37:14.985Z,101402.09
2022-11-02T13:39:46.684Z,101387.00
2022-11-02T13:42:56.536Z,101384.78
2022-11-02T13:45:53.328Z,101384.13
2022-11-02T13:48:49.268Z,101368.00
2022-11-02T13:51:26.568Z,101355.22
2022-11-02T13:54:00.211Z,101358.59
2022-11-02T13:56:30.077Z,101352.31
2022-11-02T13:59:04.107Z,101347.34
2022-11-02T14:01:36.548Z,101346.72
2022-11-02T14:04:08.333Z,101347.66
2022-11-02T14:06:46.786Z,101342.78
2022-11-02T14:09:25.301Z,101347.28
2022-11-02T14:11:53.204Z,101341.78
2022-11-02T14:14:23.465Z,101332.84
2022-11-02T14:17:12.973Z,101328.09
2022-11-02T14:20:04.324Z,101325.09
2022-11-02T14:22:33.022Z,101324.22
2022-11-02T14:25:18.887Z,101328.97
2022-11-02T14:27:46.965Z,101321.78
2022-11-02T14:30:45.194Z,101321.47
2022-11-02T14:33:29.039Z,101311.56
2022-11-02T14:36:01.500Z,101313.09
2022-11-02T14:38:49.281Z,101312.78
2022-11-02T14:41:40.921Z,101310.22
2022-11-02T14:44:45.325Z,101299.81
2022-11-02T14:47:15.337Z,101300.72
2022-11-02T14:49:51.383Z,101305.22
2022-11-02T14:52:26.556Z,101306.94
2022-11-02T14:55:00.416Z,101296.72
2022-11-02T14:57:30.906Z,101292.91
2022-11-02T15:00:01.353Z,101287.97
2022-11-02T15:02:37.271Z,101284.38
2022-11-02T15:05:22.864Z,101275.28
2022-11-02T15:07:54.188Z,101270.47
2022-11-02T15:10:52.203Z,101277.19
2022-11-02T15:13:36.941Z,101283.00
2022-11-02T15:16:26.343Z,101264.22
2022-11-02T15:18:55.901Z,101275.53
2022-11-02T15:21:29.344Z,101275.13
2022-11-02T15:24:20.700Z,101270.25
2022-11-02T15:26:51.859Z,101267.03
2022-11-02T15:29:42.100Z,101267.78
2022-11-02T15:32:22.149Z,101270.91
2022-11-02T15:34:52.493Z,101268.94
2022-11-02T15:37:24.499Z,101261.59
2022-11-02T15:39:53.651Z,101262.47
2022-11-02T15:42:30.973Z,101265.69
2022-11-02T15:45:46.905Z,101256.66
2022-11-02T15:48:30.983Z,101262.47
2022-11-02T15:51:06.567Z,101243.22
2022-11-02T15:54:00.737Z,101244.72
2022-11-02T15:56:47.587Z,101252.97
2022-11-02T15:59:45.379Z,101253.72
2022-11-02T16:02:25.031Z,101258.03
2022-11-02T16:04:55.067Z,101261.81
2022-11-02T16:07:29.176Z,101263.09
2022-11-02T16:10:22.296Z,101258.56
2022-11-02T16:12:57.869Z,101250.59
2022-11-02T16:15:26.218Z,101248.19
2022-11-02T16:17:54.494Z,101243.50
2022-11-02T16:20:24.413Z,101253.09
2022-11-02T16:22:55.774Z,101258.34
2022-11-02T16:25:36.848Z,101244.19
2022-11-02T16:28:21.754Z,101244.78
2022-11-02T16:31:10.087Z,101247.53
2022-11-02T16:33:44.534Z,101230.56
2022-11-02T16:36:15.499Z,101246.06
2022-11-02T16:38:49.447Z,101239.06
2022-11-02T16:41:19.158Z,101234.16
2022-11-02T16:43:49.784Z,101239.16
2022-11-02T16:46:18.609Z,101229.06
2022-11-02T16:49:03.651Z,101233.59
2022-11-02T16:51:31.682Z,101239.53
2022-11-02T16:54:20.936Z,101238.50
2022-11-02T16:56:51.459Z,101237.34
2022-11-02T16:59:21.284Z,101233.56
2022-11-02T17:01:49.429Z,101221.75
2022-11-02T17:04:22.312Z,101216.19
2022-11-02T17:06:52.967Z,101210.25
2022-11-02T17:09:28.252Z,101220.41
2022-11-02T17:11:59.837Z,101212.41
2022-11-02T17:14:29.031Z,101213.84
2022-11-02T17:17:05.916Z,101222.47
2022-11-02T17:19:47.559Z,101212.53
2022-11-02T17:22:24.806Z,101215.66
2022-11-02T17:25:05.881Z,101216.69
2022-11-02T17:27:39.275Z,101216.69
2022-11-02T17:30:44.546Z,101202.47
2022-11-02T17:33:22.865Z,101203.63
2022-11-02T17:35:51.959Z,101199.91
2022-11-02T17:38:22.948Z,101202.88
2022-11-02T17:40:52.253Z,101206.53
2022-11-02T17:43:21.818Z,101192.03
2022-11-02T17:45:55.848Z,101182.75
2022-11-02T17:48:25.310Z,101180.72
2022-11-02T17:50:54.565Z,101186.94
2022-11-02T17:53:23.220Z,101182.91
2022-11-02T17:55:50.951Z,101183.22
2022-11-02T17:58:18.776Z,101185.75
2022-11-02T18:00:48.147Z,101187.53
2022-11-02T18:03:19.070Z,101183.25
2022-11-02T18:05:50.120Z,101174.47
2022-11-02T18:08:20.244Z,101178.63
2022-11-02T18:10:50.940Z,101168.53
2022-11-02T18:13:21.078Z,101167.59
2022-11-02T18:15:50.991Z,101164.81
2022-11-02T18:18:18.779Z,101170.19
2022-11-02T18:20:46.482Z,101167.22
2022-11-02T18:23:16.563Z,101148.25
2022-11-02T18:25:44.308Z,101154.72
2022-11-02T18:28:12.067Z,101148.81
2022-11-02T18:30:43.203Z,101143.63
2022-11-02T18:33:14.007Z,101144.03
2022-11-02T18:35:43.165Z,101141.69
2022-11-02T18:38:11.630Z,101140.75
2022-11-02T18:40:39.350Z,101143.22
2022-11-02T18:43:07.494Z,101149.44
2022-11-02T18:45:35.577Z,101136.09
2022-11-02T18:48:03.555Z,101145.13
2022-11-02T18:50:32.875Z,101138.06
2022-11-02T18:53:00.660Z,101132.66
2022-11-02T18:55:28.345Z,101134.03
2022-11-02T18:57:56.349Z,101135.19
2022-11-02T19:00:24.120Z,101126.00
2022-11-02T19:02:51.869Z,101121.91
2022-11-02T19:05:37.188Z,101124.25
2022-11-02T19:08:23.566Z,101120.72
2022-11-02T19:10:52.270Z,101112.47
2022-11-02T19:13:19.965Z,101113.13
2022-11-02T19:15:47.652Z,101111.94
2022-11-02T19:18:15.355Z,101102.47
2022-11-02T19:20:43.049Z,101103.22
2022-11-02T19:23:12.165Z,101103.88
2022-11-02T19:25:40.004Z,101096.84
2022-11-02T19:28:08.245Z,101098.34
2022-11-02T19:30:38.558Z,101100.16
2022-11-02T19:33:06.640Z,101092.94
2022-11-02T19:35:35.616Z,101088.19
2022-11-02T19:38:03.347Z,101087.63
2022-11-02T19:40:33.820Z,101080.94
2022-11-02T19:43:01.512Z,101084.63
2022-11-02T19:45:29.250Z,101072.34
2022-11-02T19:47:56.956Z,101068.66
2022-11-02T19:50:24.812Z,101061.66
2022-11-02T19:52:52.477Z,101061.84
2022-11-02T19:55:22.729Z,101062.31
2022-11-02T19:57:51.778Z,101061.09
2022-11-02T20:00:19.775Z,101053.25
2022-11-02T20:02:50.423Z,101053.91
2022-11-02T20:05:18.230Z,101048.63
2022-11-02T20:07:45.920Z,101049.81
2022-11-02T20:10:13.627Z,101039.78
2022-11-02T20:12:41.303Z,101044.16
2022-11-02T20:15:12.127Z,101038.09
2022-11-02T20:17:52.357Z,101035.16
2022-11-02T20:20:27.963Z,101029.53
2022-11-02T20:22:55.728Z,101029.63
2022-11-02T20:25:25.509Z,101018.50
2022-11-02T20:27:53.502Z,101027.84
2022-11-02T20:30:23.062Z,101012.13
2022-11-02T20:32:50.844Z,101014.09
2022-11-02T20:35:22.789Z,101017.09
2022-11-02T20:37:50.486Z,101022.22
2022-11-02T20:40:18.368Z,101018.59
2022-11-02T20:42:46.138Z,101011.44
2022-11-02T20:45:16.151Z,101009.41
2022-11-02T20:47:45.248Z,101006.06
2022-11-02T20:50:16.754Z,100997.28
2022-11-02T20:52:46.567Z,100997.28
2022-11-02T20:55:14.375Z,100999.47
2022-11-02T20:57:42.051Z,100993.47
2022-11-02T21:00:11.532Z,100998.66
2022-11-02T21:02:39.287Z,101001.31
2022-11-02T21:05:09.428Z,101001.44
2022-11-02T21:07:37.218Z,101001.31
2022-11-02T21:10:05.818Z,100996.28
2022-11-02T21:12:51.388Z,100997.03
2022-11-02T21:15:19.257Z,100984.56
2022-11-02T21:17:47.007Z,100989.56
2022-11-02T21:23:04.791Z,100979.91
2022-11-02T21:25:33.607Z,100970.53
2022-11-02T21:28:02.050Z,100967.19
2022-11-02T21:30:31.175Z,100969.47
2022-11-02T21:32:59.908Z,100961.94
2022-11-02T21:35:28.984Z,100961.63
2022-11-02T21:38:00.226Z,100957.50
2022-11-02T21:40:31.347Z,100946.31
2022-11-02T21:42:59.100Z,100950.63
2022-11-02T21:45:26.856Z,100951.47
2022-11-02T21:47:54.602Z,100945.47
2022-11-02T21:50:22.282Z,100932.53
2022-11-02T21:52:51.404Z,100945.38
2022-11-02T21:55:19.080Z,100938.66
2022-11-02T21:57:47.365Z,100943.97
2022-11-02T22:00:16.311Z,100939.00
2022-11-02T22:02:43.141Z,100931.13
2022-11-02T22:05:31.023Z,100937.50
2022-11-02T22:08:16.607Z,100923.41
2022-11-02T22:10:44.424Z,100906.59
2022-11-02T22:13:29.655Z,100912.75
2022-11-02T22:15:57.376Z,100912.53
2022-11-02T22:18:25.211Z,100909.53
2022-11-02T22:20:56.012Z,100906.28
2022-11-02T22:23:25.145Z,100908.00
2022-11-02T22:25:59.030Z,100903.47
2022-11-02T22:28:30.414Z,100897.00
2022-11-02T22:30:58.604Z,100882.16
2022-11-02T22:33:27.268Z,100891.09
2022-11-02T22:35:54.976Z,100887.63
2022-11-02T22:38:40.171Z,100883.22
2022-11-02T22:41:09.208Z,100875.69
2022-11-02T22:43:36.951Z,100866.75
2022-11-02T22:46:06.627Z,100861.38
2022-11-02T22:48:36.143Z,100858.22
2022-11-02T22:51:04.289Z,100851.56
2022-11-02T22:53:32.019Z,100843.56
2022-11-02T22:56:00.880Z,100839.97
2022-11-02T22:58:31.428Z,100842.06
2022-11-02T23:00:59.201Z,100835.44
2022-11-02T23:03:27.218Z,100831.31
2022-11-02T23:05:55.000Z,100828.84
2022-11-02T23:08:22.728Z,100820.16
2022-11-02T23:11:12.623Z,100810.34
2022-11-02T23:13:41.870Z,100805.94
2022-11-02T23:16:24.502Z,100795.94
2022-11-02T23:19:12.127Z,100791.72
2022-11-02T23:21:40.905Z,100785.88
2022-11-02T23:24:27.327Z,100775.66
2022-11-02T23:26:56.028Z,100771.56
2022-11-02T23:29:43.013Z,100781.91
2022-11-02T23:32:27.391Z,100777.25
2022-11-02T23:35:14.396Z,100768.03
2022-11-02T23:37:42.773Z,100772.66
2022-11-02T23:40:12.006Z,100764.63
2022-11-02T23:42:39.744Z,100773.50
2022-11-02T23:45:10.891Z,100764.59
2022-11-02T23:47:56.675Z,100766.13
2022-11-02T23:50:43.488Z,100759.19
2022-11-02T23:53:29.746Z,100749.28
2022-11-02T23:56:15.660Z,100746.94
2022-11-02T23:58:43.468Z,100748.22
